createdAt,value
2022-08-31T00:01:42.214Z,14.50
2022-08-31T00:04:13.516Z,14.50
2022-08-31T00:06:51.421Z,14.50
2022-08-31T00:09:39.343Z,14.50
2022-08-31T00:12:14.408Z,14.50
2022-08-31T00:14:42.602Z,14.50
2022-08-31T00:17:13.708Z,14.50
2022-08-31T00:19:41.521Z,14.50
2022-08-31T00:22:12.206Z,14.50
2022-08-31T00:24:45.518Z,14.50
2022-08-31T00:27:16.947Z,14.60
2022-08-31T00:29:56.740Z,14.60
2022-08-31T00:32:34.639Z,14.60
2022-08-31T00:35:03.323Z,14.60
2022-08-31T00:37:36.411Z,14.60
2022-08-31T00:40:14.582Z,14.60
2022-08-31T00:42:41.476Z,14.60
2022-08-31T00:45:10.596Z,14.60
2022-08-31T00:47:37.449Z,14.60
2022-08-31T00:50:06.730Z,14.60
2022-08-31T00:52:38.182Z,14.60
2022-08-31T00:55:14.494Z,14.60
2022-08-31T00:57:44.819Z,14.60
2022-08-31T01:00:17.887Z,14.60
2022-08-31T01:02:45.073Z,14.60
2022-08-31T01:05:14.538Z,14.60
2022-08-31T01:07:42.629Z,14.50
2022-08-31T01:10:10.709Z,14.50
2022-08-31T01:12:37.806Z,14.50
2022-08-31T01:15:08.633Z,14.50
2022-08-31T01:17:37.828Z,14.50
2022-08-31T01:20:11.967Z,14.40
2022-08-31T01:22:58.353Z,14.50
2022-08-31T01:25:25.612Z,14.50
2022-08-31T01:28:04.989Z,14.40
2022-08-31T01:30:32.623Z,14.40
2022-08-31T01:32:59.697Z,14.40
2022-08-31T01:35:27.500Z,14.30
2022-08-31T01:37:55.396Z,14.30
2022-08-31T01:40:27.029Z,14.30
2022-08-31T01:42:53.916Z,14.30
2022-08-31T01:45:20.803Z,14.30
2022-08-31T01:47:47.627Z,14.30
2022-08-31T01:50:14.602Z,14.20
2022-08-31T01:52:41.450Z,14.20
2022-08-31T01:55:08.962Z,14.20
2022-08-31T01:57:35.902Z,14.10
2022-08-31T02:00:08.295Z,14.10
2022-08-31T02:02:35.576Z,14.10
2022-08-31T02:05:02.529Z,14.10
2022-08-31T02:07:29.415Z,14.10
2022-08-31T02:09:56.328Z,14.10
2022-08-31T02:12:23.202Z,14.00
2022-08-31T02:14:50.093Z,14.00
2022-08-31T02:17:17.177Z,14.00
2022-08-31T02:19:44.094Z,14.00
2022-08-31T02:22:11.050Z,14.00
2022-08-31T02:24:37.881Z,13.90
2022-08-31T02:27:05.013Z,13.90
2022-08-31T02:29:31.846Z,13.90
2022-08-31T02:31:58.822Z,13.90
2022-08-31T02:34:26.388Z,13.90
2022-08-31T02:36:53.204Z,13.80
2022-08-31T02:39:20.159Z,13.80
2022-08-31T02:41:47.349Z,13.80
2022-08-31T02:44:14.614Z,13.80
2022-08-31T02:46:41.552Z,13.80
2022-08-31T02:49:08.446Z,13.70
2022-08-31T02:51:35.299Z,13.70
2022-08-31T02:54:02.126Z,13.70
2022-08-31T02:56:28.995Z,13.70
2022-08-31T02:58:55.919Z,13.60
2022-08-31T03:01:24.133Z,13.60
2022-08-31T03:03:51.489Z,13.60
2022-08-31T03:06:20.166Z,13.60
2022-08-31T03:08:47.798Z,13.50
2022-08-31T03:11:15.661Z,13.50
2022-08-31T03:13:42.593Z,13.50
2022-08-31T03:16:11.863Z,13.40
2022-08-31T03:18:38.741Z,13.40
2022-08-31T03:21:05.782Z,13.40
2022-08-31T03:23:32.573Z,13.40
2022-08-31T03:25:59.866Z,13.40
2022-08-31T03:28:26.704Z,13.30
2022-08-31T03:30:53.663Z,13.30
2022-08-31T03:33:20.742Z,13.20
2022-08-31T03:35:47.631Z,13.20
2022-08-31T03:38:16.060Z,13.10
2022-08-31T03:40:44.389Z,13.10
2022-08-31T03:43:11.783Z,13.00
2022-08-31T03:45:40.495Z,13.00
2022-08-31T03:48:12.165Z,12.90
2022-08-31T03:50:40.817Z,12.90
2022-08-31T03:53:08.995Z,12.90
2022-08-31T03:55:38.675Z,12.80
2022-08-31T03:58:06.642Z,12.80
2022-08-31T04:00:34.049Z,12.70
2022-08-31T04:03:01.646Z,12.60
2022-08-31T04:05:30.216Z,12.60
2022-08-31T04:07:57.457Z,12.60
2022-08-31T04:10:24.761Z,12.50
2022-08-31T04:12:51.781Z,12.40
2022-08-31T04:15:19.341Z,12.40
2022-08-31T04:17:47.176Z,12.30
2022-08-31T04:20:14.895Z,12.30
2022-08-31T04:22:41.806Z,12.30
2022-08-31T04:25:10.663Z,12.30
2022-08-31T04:27:40.555Z,12.20
2022-08-31T04:30:09.181Z,12.20
2022-08-31T04:32:36.203Z,12.20
2022-08-31T04:35:03.923Z,12.20
2022-08-31T04:37:31.174Z,12.20
2022-08-31T04:39:59.157Z,12.20
2022-08-31T04:42:28.120Z,12.10
2022-08-31T04:44:55.058Z,12.20
2022-08-31T04:47:21.869Z,12.20
2022-08-31T04:49:48.802Z,12.20
2022-08-31T04:52:15.690Z,12.20
2022-08-31T04:54:42.576Z,12.20
2022-08-31T04:57:09.406Z,12.20
2022-08-31T04:59:36.741Z,12.20
2022-08-31T05:02:04.003Z,12.30
2022-08-31T05:04:31.914Z,12.30
2022-08-31T05:06:59.074Z,12.30
2022-08-31T05:09:26.215Z,12.40
2022-08-31T05:11:54.379Z,12.40
2022-08-31T05:14:22.284Z,12.40
2022-08-31T05:16:49.682Z,12.50
2022-08-31T05:19:17.063Z,12.50
2022-08-31T05:21:44.676Z,12.50
2022-08-31T05:24:15.902Z,12.60
2022-08-31T05:26:48.302Z,12.60
2022-08-31T05:29:17.994Z,12.70
2022-08-31T05:31:50.233Z,12.70
2022-08-31T05:34:20.902Z,12.80
2022-08-31T05:36:52.418Z,12.80
2022-08-31T05:39:19.671Z,12.90
2022-08-31T05:41:47.308Z,13.00
2022-08-31T05:44:15.175Z,13.00
2022-08-31T05:46:42.474Z,13.10
2022-08-31T05:49:10.933Z,13.10
2022-08-31T05:51:39.430Z,13.10
2022-08-31T05:54:07.655Z,13.10
2022-08-31T05:56:35.714Z,13.20
2022-08-31T05:59:02.733Z,13.30
2022-08-31T06:01:33.130Z,13.20
2022-08-31T06:04:01.293Z,13.30
2022-08-31T06:06:28.303Z,13.30
2022-08-31T06:08:55.967Z,13.30
2022-08-31T06:11:26.173Z,13.30
2022-08-31T06:13:54.799Z,13.30
2022-08-31T06:16:23.154Z,13.40
2022-08-31T06:18:53.276Z,13.40
2022-08-31T06:21:24.018Z,13.50
2022-08-31T06:23:52.306Z,13.60
2022-08-31T06:26:21.339Z,13.70
2022-08-31T06:28:51.542Z,13.70
2022-08-31T06:31:29.538Z,13.80
2022-08-31T06:33:59.224Z,13.80
2022-08-31T06:36:28.446Z,13.80
2022-08-31T06:38:57.838Z,13.90
2022-08-31T06:41:29.270Z,13.90
2022-08-31T06:44:00.686Z,13.90
2022-08-31T06:46:29.233Z,13.90
2022-08-31T06:48:57.467Z,14.00
2022-08-31T06:51:25.077Z,14.00
2022-08-31T06:53:52.662Z,14.00
2022-08-31T06:56:25.385Z,14.10
2022-08-31T06:58:53.686Z,14.10
2022-08-31T07:01:35.822Z,14.20
2022-08-31T07:04:08.382Z,14.20
2022-08-31T07:06:44.119Z,14.20
2022-08-31T07:09:17.734Z,14.30
2022-08-31T07:11:51.332Z,14.40
2022-08-31T07:14:24.541Z,14.40
2022-08-31T07:16:54.423Z,14.40
2022-08-31T07:19:22.057Z,14.50
2022-08-31T07:21:55.015Z,14.60
2022-08-31T07:24:25.780Z,14.70
2022-08-31T07:26:59.408Z,14.80
2022-08-31T07:29:34.083Z,14.80
2022-08-31T07:32:00.926Z,14.90
2022-08-31T07:34:30.268Z,14.90
2022-08-31T07:37:18.166Z,14.90
2022-08-31T07:40:07.985Z,14.90
2022-08-31T07:42:39.179Z,14.90
2022-08-31T07:45:12.165Z,14.90
2022-08-31T07:47:46.126Z,15.00
2022-08-31T07:50:15.319Z,15.10
2022-08-31T07:52:53.098Z,15.10
2022-08-31T07:55:24.799Z,15.30
2022-08-31T07:57:54.865Z,15.40
2022-08-31T08:00:25.654Z,15.50
2022-08-31T08:02:54.047Z,15.60
2022-08-31T08:05:28.829Z,15.80
2022-08-31T08:08:08.447Z,15.90
2022-08-31T08:10:39.726Z,16.10
2022-08-31T08:13:07.885Z,16.30
2022-08-31T08:15:36.165Z,16.50
2022-08-31T08:18:06.626Z,16.70
2022-08-31T08:20:37.821Z,16.90
2022-08-31T08:23:14.975Z,17.10
2022-08-31T08:25:46.142Z,17.20
2022-08-31T08:28:38.795Z,17.30
2022-08-31T08:31:07.552Z,17.30
2022-08-31T08:33:35.569Z,17.50
2022-08-31T08:36:07.460Z,17.70
2022-08-31T08:38:38.968Z,17.80
2022-08-31T08:41:11.281Z,17.80
2022-08-31T08:43:41.087Z,18.00
2022-08-31T08:46:33.616Z,18.20
2022-08-31T08:49:11.545Z,18.30
2022-08-31T08:51:39.322Z,18.20
2022-08-31T08:54:19.333Z,18.20
2022-08-31T08:56:49.215Z,18.30
2022-08-31T08:59:19.658Z,18.30
2022-08-31T09:01:52.681Z,18.40
2022-08-31T09:04:30.335Z,18.40
2022-08-31T09:07:44.393Z,18.50
2022-08-31T09:10:23.306Z,18.60
2022-08-31T09:13:20.745Z,18.70
2022-08-31T09:16:02.239Z,18.90
2022-08-31T09:18:52.356Z,19.00
2022-08-31T09:21:25.294Z,19.20
2022-08-31T09:24:15.804Z,19.30
2022-08-31T09:27:12.636Z,19.20
2022-08-31T09:29:44.103Z,19.40
2022-08-31T09:32:16.527Z,19.40
2022-08-31T09:34:51.904Z,19.50
2022-08-31T09:37:25.013Z,19.40
2022-08-31T09:39:53.735Z,19.40
2022-08-31T09:42:31.535Z,19.50
2022-08-31T09:45:03.869Z,19.60
2022-08-31T09:47:52.066Z,19.70
2022-08-31T09:50:44.893Z,19.70
2022-08-31T09:53:30.235Z,19.70
2022-08-31T09:56:23.504Z,19.70
2022-08-31T09:59:02.690Z,20.00
2022-08-31T10:01:45.286Z,20.00
2022-08-31T10:04:20.256Z,20.10
2022-08-31T10:07:06.954Z,20.20
2022-08-31T10:09:49.743Z,20.10
2022-08-31T10:12:42.028Z,20.00
2022-08-31T10:15:33.529Z,20.10
2022-08-31T10:18:18.906Z,20.30
2022-08-31T10:20:56.925Z,20.40
2022-08-31T10:23:54.426Z,20.50
2022-08-31T10:26:36.069Z,20.30
2022-08-31T10:29:19.136Z,20.40
2022-08-31T10:31:53.912Z,20.40
2022-08-31T10:34:43.512Z,20.50
2022-08-31T10:37:20.627Z,20.30
2022-08-31T10:39:52.261Z,20.20
2022-08-31T10:42:24.140Z,20.30
2022-08-31T10:45:01.987Z,20.20
2022-08-31T10:47:33.725Z,20.20
2022-08-31T10:50:03.474Z,20.40
2022-08-31T10:52:34.500Z,20.60
2022-08-31T10:55:16.647Z,20.80
2022-08-31T10:57:56.381Z,21.10
2022-08-31T11:00:41.718Z,21.20
2022-08-31T11:03:41.963Z,21.40
2022-08-31T11:06:17.659Z,21.50
2022-08-31T11:09:02.502Z,21.60
2022-08-31T11:11:42.477Z,21.50
2022-08-31T11:14:14.712Z,21.50
2022-08-31T11:16:58.527Z,21.40
2022-08-31T11:19:40.274Z,21.30
2022-08-31T11:22:34.698Z,21.40
2022-08-31T11:25:25.049Z,21.50
2022-08-31T11:28:29.079Z,21.50
2022-08-31T11:30:56.300Z,21.40
2022-08-31T11:33:28.077Z,21.20
2022-08-31T11:36:07.703Z,21.20
2022-08-31T11:38:48.835Z,21.30
2022-08-31T11:41:39.263Z,21.50
2022-08-31T11:44:10.584Z,21.60
2022-08-31T11:46:40.027Z,21.80
2022-08-31T11:49:07.852Z,21.90
2022-08-31T11:51:44.969Z,21.90
2022-08-31T11:54:15.814Z,21.70
2022-08-31T11:56:47.639Z,21.80
2022-08-31T11:59:30.070Z,22.00
2022-08-31T12:02:21.181Z,22.10
2022-08-31T12:04:57.471Z,22.20
2022-08-31T12:07:44.089Z,22.10
2022-08-31T12:10:25.477Z,22.10
2022-08-31T12:13:19.642Z,21.90
2022-08-31T12:16:04.112Z,22.00
2022-08-31T12:19:00.242Z,22.30
2022-08-31T12:22:04.846Z,22.50
2022-08-31T12:24:51.838Z,22.70
2022-08-31T12:27:44.884Z,22.60
2022-08-31T12:30:22.937Z,22.70
2022-08-31T12:32:58.948Z,22.70
2022-08-31T12:35:29.628Z,22.70
2022-08-31T12:38:17.337Z,22.80
2022-08-31T12:40:45.582Z,22.70
2022-08-31T12:43:19.444Z,22.70
2022-08-31T12:46:24.103Z,22.70
2022-08-31T12:49:07.719Z,22.70
2022-08-31T12:52:07.351Z,22.70
2022-08-31T12:54:56.564Z,22.80
2022-08-31T12:57:38.974Z,23.10
2022-08-31T13:00:13.541Z,23.30
2022-08-31T13:02:44.226Z,23.30
2022-08-31T13:05:33.047Z,23.10
2022-08-31T13:08:00.655Z,22.80
2022-08-31T13:10:31.681Z,22.80
2022-08-31T13:13:04.448Z,22.60
2022-08-31T13:15:39.873Z,22.50
2022-08-31T13:18:28.181Z,22.40
2022-08-31T13:21:05.498Z,22.50
2022-08-31T13:23:41.062Z,22.50
2022-08-31T13:26:23.793Z,22.70
2022-08-31T13:28:54.108Z,22.80
2022-08-31T13:31:26.870Z,22.70
2022-08-31T13:33:56.984Z,22.70
2022-08-31T13:36:35.954Z,22.90
2022-08-31T13:39:12.426Z,23.00
2022-08-31T13:42:05.314Z,23.20
2022-08-31T13:44:38.146Z,23.20
2022-08-31T13:47:27.579Z,23.30
2022-08-31T13:50:10.263Z,23.30
2022-08-31T13:52:37.706Z,23.30
2022-08-31T13:55:12.907Z,23.20
2022-08-31T13:57:41.636Z,23.10
2022-08-31T14:00:27.499Z,23.10
2022-08-31T14:02:59.222Z,23.10
2022-08-31T14:05:38.564Z,23.10
2022-08-31T14:08:09.465Z,23.00
2022-08-31T14:10:40.871Z,23.10
2022-08-31T14:13:14.265Z,22.90
2022-08-31T14:16:02.079Z,22.90
2022-08-31T14:18:42.950Z,22.80
2022-08-31T14:21:21.111Z,22.80
2022-08-31T14:23:53.094Z,23.00
2022-08-31T14:26:26.349Z,23.20
2022-08-31T14:28:57.031Z,23.40
2022-08-31T14:31:56.257Z,23.50
2022-08-31T14:34:33.910Z,23.50
2022-08-31T14:37:06.972Z,23.30
2022-08-31T14:39:36.179Z,23.30
2022-08-31T14:42:16.421Z,23.20
2022-08-31T14:44:57.868Z,23.10
2022-08-31T14:47:30.404Z,23.00
2022-08-31T14:50:07.102Z,22.90
2022-08-31T14:52:36.447Z,22.80
2022-08-31T14:55:09.028Z,22.60
2022-08-31T14:57:36.939Z,22.50
2022-08-31T15:00:06.737Z,22.60
2022-08-31T15:02:34.142Z,22.80
2022-08-31T15:05:08.203Z,23.10
2022-08-31T15:07:39.166Z,23.30
2022-08-31T15:10:08.976Z,23.50
2022-08-31T15:12:36.156Z,23.80
2022-08-31T15:15:03.079Z,24.20
2022-08-31T15:17:33.880Z,24.60
2022-08-31T15:20:03.507Z,25.00
2022-08-31T15:22:31.669Z,25.30
2022-08-31T15:24:59.034Z,25.70
2022-08-31T15:27:28.902Z,25.80
2022-08-31T15:30:02.580Z,26.00
2022-08-31T15:32:29.525Z,26.30
2022-08-31T15:34:58.175Z,26.50
2022-08-31T15:37:31.928Z,26.70
2022-08-31T15:40:01.319Z,26.90
2022-08-31T15:42:29.681Z,26.80
2022-08-31T15:44:57.335Z,26.80
2022-08-31T15:47:49.046Z,26.50
2022-08-31T15:50:18.649Z,26.40
2022-08-31T15:52:52.015Z,26.30
2022-08-31T15:55:26.366Z,26.40
2022-08-31T15:57:54.874Z,26.20
2022-08-31T16:00:26.453Z,26.00
2022-08-31T16:02:55.908Z,25.90
2022-08-31T16:05:24.874Z,26.20
2022-08-31T16:07:52.621Z,26.20
2022-08-31T16:10:20.284Z,26.30
2022-08-31T16:12:47.729Z,26.30
2022-08-31T16:15:15.510Z,26.40
2022-08-31T16:17:43.070Z,26.40
2022-08-31T16:20:12.691Z,26.40
2022-08-31T16:22:41.861Z,26.30
2022-08-31T16:25:14.399Z,26.30
2022-08-31T16:27:43.385Z,26.00
2022-08-31T16:30:12.700Z,26.10
2022-08-31T16:32:40.008Z,26.00
2022-08-31T16:35:07.618Z,25.70
2022-08-31T16:37:34.511Z,25.40
2022-08-31T16:40:01.365Z,24.90
2022-08-31T16:42:28.507Z,24.50
2022-08-31T16:44:59.731Z,24.20
2022-08-31T16:47:29.015Z,23.90
2022-08-31T16:49:55.961Z,23.50
2022-08-31T16:52:26.471Z,23.20
2022-08-31T16:54:54.416Z,22.90
2022-08-31T16:57:27.492Z,22.70
2022-08-31T16:59:56.448Z,22.50
2022-08-31T17:02:24.545Z,22.30
2022-08-31T17:04:53.781Z,22.10
2022-08-31T17:07:23.158Z,21.90
2022-08-31T17:09:50.502Z,21.80
2022-08-31T17:12:20.600Z,21.70
2022-08-31T17:14:51.361Z,21.60
2022-08-31T17:17:21.675Z,21.50
2022-08-31T17:19:48.849Z,21.40
2022-08-31T17:22:24.502Z,21.30
2022-08-31T17:24:56.420Z,21.30
2022-08-31T17:27:24.850Z,21.20
2022-08-31T17:29:53.918Z,21.10
2022-08-31T17:32:23.436Z,21.00
2022-08-31T17:34:51.591Z,20.80
2022-08-31T17:37:26.509Z,20.70
2022-08-31T17:39:54.895Z,20.60
2022-08-31T17:42:25.530Z,20.50
2022-08-31T17:44:53.036Z,20.40
2022-08-31T17:47:21.494Z,20.30
2022-08-31T17:49:50.705Z,20.20
2022-08-31T17:52:20.479Z,20.10
2022-08-31T17:54:48.458Z,19.90
2022-08-31T17:57:16.850Z,19.90
2022-08-31T17:59:46.531Z,19.70
2022-08-31T18:02:35.015Z,19.60
2022-08-31T18:05:03.228Z,19.50
2022-08-31T18:07:36.911Z,19.40
2022-08-31T18:10:04.619Z,19.30
2022-08-31T18:12:31.425Z,19.10
2022-08-31T18:14:59.167Z,19.10
2022-08-31T18:17:26.929Z,19.00
2022-08-31T18:19:54.778Z,18.80
2022-08-31T18:22:21.667Z,18.70
2022-08-31T18:24:48.550Z,18.60
2022-08-31T18:27:15.636Z,18.60
2022-08-31T18:29:44.187Z,18.50
2022-08-31T18:32:11.205Z,18.30
2022-08-31T18:34:40.633Z,18.30
2022-08-31T18:37:09.276Z,18.20
2022-08-31T18:40:00.019Z,18.10
2022-08-31T18:42:46.405Z,18.10
2022-08-31T18:45:18.419Z,17.90
2022-08-31T18:48:20.843Z,17.90
2022-08-31T18:50:45.208Z,17.70
2022-08-31T18:53:15.124Z,17.60
2022-08-31T18:55:43.629Z,17.50
2022-08-31T18:58:10.747Z,17.40
2022-08-31T19:00:37.996Z,17.40
2022-08-31T19:03:04.927Z,17.30
2022-08-31T19:05:32.646Z,17.20
2022-08-31T19:08:00.358Z,17.20
2022-08-31T19:10:27.618Z,17.10
2022-08-31T19:12:55.686Z,17.10
2022-08-31T19:15:25.622Z,17.00
2022-08-31T19:18:03.233Z,17.00
2022-08-31T19:20:30.411Z,16.90
2022-08-31T19:22:57.510Z,16.90
2022-08-31T19:25:24.616Z,16.80
2022-08-31T19:27:52.042Z,16.70
2022-08-31T19:30:23.274Z,16.70
2022-08-31T19:32:54.276Z,16.70
2022-08-31T19:35:21.324Z,16.60
2022-08-31T19:37:51.823Z,16.50
2022-08-31T19:40:19.499Z,16.50
2022-08-31T19:43:42.933Z,16.50
2022-08-31T19:45:43.587Z,16.40
2022-08-31T19:48:12.811Z,16.30
2022-08-31T19:50:42.349Z,16.30
2022-08-31T19:53:13.433Z,16.30
2022-08-31T19:55:51.711Z,16.30
2022-08-31T19:58:22.469Z,16.40
2022-08-31T20:00:49.926Z,16.40
2022-08-31T20:03:19.248Z,16.30
2022-08-31T20:05:46.622Z,16.30
2022-08-31T20:08:13.406Z,16.30
2022-08-31T20:10:45.069Z,16.30
2022-08-31T20:13:12.953Z,16.30
2022-08-31T20:15:44.693Z,16.30
2022-08-31T20:18:12.647Z,16.30
2022-08-31T20:20:48.428Z,16.30
2022-08-31T20:23:18.130Z,16.30
2022-08-31T20:25:47.063Z,16.30
2022-08-31T20:28:15.066Z,16.30
2022-08-31T20:30:43.595Z,16.30
2022-08-31T20:33:11.804Z,16.20
2022-08-31T20:35:47.571Z,16.20
2022-08-31T20:38:17.069Z,16.20
2022-08-31T20:40:47.072Z,16.20
2022-08-31T20:43:14.651Z,16.20
2022-08-31T20:45:42.091Z,16.20
2022-08-31T20:48:28.472Z,16.20
2022-08-31T20:50:56.619Z,16.20
2022-08-31T20:53:38.980Z,16.10
2022-08-31T20:56:16.979Z,16.10
2022-08-31T20:58:45.606Z,16.00
2022-08-31T21:01:13.715Z,15.90
2022-08-31T21:03:40.942Z,15.90
2022-08-31T21:06:11.222Z,15.90
2022-08-31T21:08:39.433Z,15.90
2022-08-31T21:11:13.990Z,15.80
2022-08-31T21:13:42.763Z,15.80
2022-08-31T21:16:10.236Z,15.80
2022-08-31T21:18:38.685Z,15.70
2022-08-31T21:21:14.537Z,15.80
2022-08-31T21:23:41.390Z,15.70
2022-08-31T21:26:12.780Z,15.70
2022-08-31T21:28:39.602Z,15.70
2022-08-31T21:31:18.238Z,15.60
2022-08-31T21:33:57.971Z,15.60
2022-08-31T21:36:26.691Z,15.50
2022-08-31T21:38:55.642Z,15.50
2022-08-31T21:41:26.135Z,15.50
2022-08-31T21:43:53.384Z,15.40
2022-08-31T21:46:23.289Z,15.40
2022-08-31T21:48:52.186Z,15.40
2022-08-31T21:51:22.550Z,15.30
2022-08-31T21:53:56.046Z,15.30
2022-08-31T21:56:26.145Z,15.20
2022-08-31T21:58:53.037Z,15.20
2022-08-31T22:01:20.396Z,15.10
2022-08-31T22:03:53.875Z,15.10
2022-08-31T22:06:31.000Z,15.10
2022-08-31T22:09:08.367Z,15.00
2022-08-31T22:11:41.645Z,15.10
2022-08-31T22:14:11.090Z,15.00
2022-08-31T22:16:39.501Z,15.00
2022-08-31T22:19:13.309Z,15.00
2022-08-31T22:21:44.155Z,14.90
2022-08-31T22:24:26.583Z,14.90
2022-08-31T22:26:56.067Z,14.80
2022-08-31T22:29:26.108Z,14.80
2022-08-31T22:31:57.558Z,14.70
2022-08-31T22:34:25.016Z,14.70
2022-08-31T22:36:53.576Z,14.60
2022-08-31T22:39:25.137Z,14.60
2022-08-31T22:41:53.154Z,14.50
2022-08-31T22:44:28.339Z,14.50
2022-08-31T22:46:57.130Z,14.40
2022-08-31T22:49:24.998Z,14.40
2022-08-31T22:51:51.834Z,14.40
2022-08-31T22:54:19.949Z,14.40
2022-08-31T22:56:47.986Z,14.30
2022-08-31T22:59:21.057Z,14.30
2022-08-31T23:01:54.985Z,14.30
2022-08-31T23:04:26.371Z,14.30
2022-08-31T23:06:55.353Z,14.30
2022-08-31T23:09:27.581Z,14.20
2022-08-31T23:11:55.742Z,14.20
2022-08-31T23:14:23.409Z,14.20
2022-08-31T23:16:57.138Z,14.20
2022-08-31T23:19:26.817Z,14.20
2022-08-31T23:21:57.525Z,14.10
2022-08-31T23:24:33.488Z,14.20
2022-08-31T23:27:04.732Z,14.20
2022-08-31T23:29:47.113Z,14.10
2022-08-31T23:32:18.067Z,14.10
2022-08-31T23:34:46.493Z,14.00
2022-08-31T23:37:14.246Z,14.00
2022-08-31T23:39:43.660Z,14.00
2022-08-31T23:42:12.311Z,14.00
2022-08-31T23:44:42.654Z,14.00
2022-08-31T23:47:20.229Z,14.00
2022-08-31T23:49:51.067Z,14.00
2022-08-31T23:52:21.328Z,14.00
2022-08-31T23:54:50.324Z,14.00
2022-08-31T23:57:31.708Z,14.00
